CheckWX is a tool to help pilots better visualize weather data.  It is not intended as a substitute for an official pre-flight weather briefing.

06:49:35 UTC

KPEO METAR
Penn Yan Airport
Penn Yan, New York, USA
Current

20 mins ago

KPEO 220630Z AUTO 00000KT 8SM BKN011 06/05 A3019 RMK AO2 T00610050
Observed
Apr-22 @ 06:30 UTC
Visibility
8 SM
Flight Rules
MVFR
Cloud Levels
  • Broken at 1,100' AGL
Temperature
C / 43°F
Dewpoint
C / 41°F
Humidity
93%
Altimeter
30.19" Hg
Pressure
1022.32 hPa
Previous

57 mins ago

KPEO 220553Z AUTO 00000KT 8SM SCT025 07/06 A3020 RMK AO2 SLP230 T00720061 10111 20061 53001
Observed
Apr-22 @ 05:53 UTC
Visibility
8 SM
Flight Rules
VFR
Cloud Levels
  • Scattered at 2,500' AGL
Temperature
C / 45°F
Dewpoint
C / 43°F
Humidity
93%
Altimeter
30.2" Hg
Pressure
1022.72 hPa
Previous

2 hours ago

KPEO 220453Z AUTO 00000KT 10SM BKN025 07/06 A3020 RMK AO2 SLP230 T00720061 401390061
Observed
Apr-22 @ 04:53 UTC
Visibility
10 SM
Flight Rules
MVFR
Cloud Levels
  • Broken at 2,500' AGL
Temperature
C / 45°F
Dewpoint
C / 43°F
Humidity
93%
Altimeter
30.2" Hg
Pressure
1022.72 hPa